PWSweather.com
Personal Weather Stations
Station Observations
N3SME
Betz Creek, Wilmington Island, Savannah, GA 31410

Betz Creek, Wilmington IslandSavannah, GA 31410

Lat: 32.023021, Lon: -80.959452

Elevation: 15

Station Type: Ambient

Latest ConditionsUpdated 1:57:09 PM EDT Friday, Apr 18, 2014
Currently Today's Max Today's Min Today's Average
Temperature 59.1°F15.1°C 62.0°F16.7°C 59.1°F15.1°C 60.7°F15.9°C
Dew Point 55.8°F13.2°C 57.2°F14.0°C 53.4°F11.9°C 55.5°F13.1°C
Winds 19.2 mph ENE30.9 kmh ENE 22.8 mph E36.7 kmh E - 11.4 mph 18.3 kmh
Wind Gusts 35.1 mph56.5 kmh 57.7 mph92.9 kmh - -
Humidity 89% 89% 76% 83%
Pressure 30.06 in1017.9 mb 30.24 in1024.0 mb 30.06 in1017.9 mb -
Precipitation - 0.06 in1.5 mm - -
Hour Temp Dew Point Humidity Winds Wind Gusts Pressure Precip Precip Rate Daily Precip Total
01:57 PM 59.1°F15.1°C 55.8°F13.2°C 89% 19.2 mph ENE30.9 kmh ENE 35.1 mph56.5 kmh 30.06 in1017.9 mb 0.02 in0.5 mm 0.00 in/hr0.0 mm/hr 0.06 in1.5 mm
01:42 PM 59.1°F15.1°C 55.8°F13.2°C 89% 10.5 mph E16.9 kmh E 43.8 mph70.5 kmh 30.06 in1017.9 mb 0.02 in0.5 mm 0.00 in/hr0.0 mm/hr 0.06 in1.5 mm
01:27 PM 59.3°F15.2°C 56.0°F13.3°C 89% 6.9 mph NE11.1 kmh NE 36.7 mph59.1 kmh 30.07 in1018.3 mb 0.02 in0.5 mm 0.00 in/hr0.0 mm/hr 0.06 in1.5 mm
01:12 PM 59.3°F15.2°C 55.7°F13.2°C 88% 17.4 mph NE28.0 kmh NE 57.7 mph92.9 kmh 30.09 in1019.0 mb 0.02 in0.5 mm 0.03 in/hr0.8 mm/hr 0.06 in1.5 mm
12:57 PM 59.4°F15.2°C 55.2°F12.9°C 86% 22.8 mph E36.7 kmh E 45.4 mph73.1 kmh 30.08 in1018.6 mb 0.00 in0.0 mm 0.00 in/hr0.0 mm/hr 0.04 in1.0 mm
12:42 PM 59.6°F15.3°C 54.4°F12.4°C 83% 8.7 mph NE14.0 kmh NE 43.8 mph70.5 kmh 30.11 in1019.6 mb 0.00 in0.0 mm 0.00 in/hr0.0 mm/hr 0.04 in1.0 mm
12:27 PM 60.0°F15.6°C 53.4°F11.9°C 79% 15.7 mph E25.3 kmh E 47.2 mph76.0 kmh 30.12 in1020.0 mb 0.00 in0.0 mm 0.00 in/hr0.0 mm/hr 0.04 in1.0 mm
12:12 PM 60.2°F15.7°C 53.5°F11.9°C 79% 12.3 mph ENE19.8 kmh ENE 40.3 mph64.9 kmh 30.12 in1020.0 mb 0.00 in0.0 mm 0.00 in/hr0.0 mm/hr 0.04 in1.0 mm
11:57 AM 60.2°F15.7°C 53.5°F11.9°C 79% 12.3 mph E19.8 kmh E 38.5 mph62.0 kmh 30.14 in1020.7 mb 0.00 in0.0 mm 0.00 in/hr0.0 mm/hr 0.04 in1.0 mm
11:42 AM 60.2°F15.7°C 53.5°F11.9°C 79% 6.9 mph N11.1 kmh N 35.1 mph56.5 kmh 30.14 in1020.7 mb 0.00 in0.0 mm 0.00 in/hr0.0 mm/hr 0.04 in1.0 mm
11:27 AM 60.0°F15.6°C 53.4°F11.9°C 79% 6.9 mph ENE11.1 kmh ENE 45.4 mph73.1 kmh 30.16 in1021.3 mb 0.00 in0.0 mm 0.00 in/hr0.0 mm/hr 0.04 in1.0 mm
11:12 AM 60.3°F15.7°C 54.1°F12.3°C 80% 12.3 mph E19.8 kmh E 36.7 mph59.1 kmh 30.16 in1021.3 mb 0.00 in0.0 mm 0.00 in/hr0.0 mm/hr 0.04 in1.0 mm
10:57 AM 60.2°F15.7°C 53.9°F12.2°C 80% 15.7 mph ENE25.3 kmh ENE 40.3 mph64.9 kmh 30.16 in1021.3 mb 0.00 in0.0 mm 0.00 in/hr0.0 mm/hr 0.04 in1.0 mm
10:42 AM 60.0°F15.6°C 54.4°F12.4°C 82% 15.7 mph ENE25.3 kmh ENE 38.5 mph62.0 kmh 30.17 in1021.7 mb 0.01 in0.3 mm 0.00 in/hr0.0 mm/hr 0.04 in1.0 mm
10:27 AM 59.6°F15.3°C 54.4°F12.4°C 83% 3.6 mph E5.8 kmh E 45.4 mph73.1 kmh 30.17 in1021.7 mb 0.01 in0.3 mm 0.00 in/hr0.0 mm/hr 0.04 in1.0 mm
10:12 AM 59.4°F15.2°C 54.5°F12.5°C 84% 8.7 mph E14.0 kmh E 35.1 mph56.5 kmh 30.17 in1021.7 mb 0.01 in0.3 mm 0.00 in/hr0.0 mm/hr 0.04 in1.0 mm
09:57 AM 59.4°F15.2°C 54.5°F12.5°C 84% 6.9 mph E11.1 kmh E 38.5 mph62.0 kmh 30.18 in1022.0 mb 0.01 in0.3 mm 0.04 in/hr1.0 mm/hr 0.04 in1.0 mm
09:42 AM 59.3°F15.2°C 54.4°F12.4°C 84% 10.5 mph E16.9 kmh E 31.5 mph50.7 kmh 30.17 in1021.7 mb 0.00 in0.0 mm 0.00 in/hr0.0 mm/hr 0.02 in0.5 mm
09:27 AM 59.6°F15.3°C 54.7°F12.6°C 84% 10.5 mph ENE16.9 kmh ENE 36.7 mph59.1 kmh 30.17 in1021.7 mb 0.01 in0.3 mm 0.00 in/hr0.0 mm/hr 0.02 in0.5 mm
09:12 AM 59.4°F15.2°C 55.2°F12.9°C 86% 6.9 mph ENE11.1 kmh ENE 42.1 mph67.8 kmh 30.18 in1022.0 mb 0.01 in0.3 mm 0.00 in/hr0.0 mm/hr 0.02 in0.5 mm
08:57 AM 59.6°F15.3°C 55.7°F13.2°C 87% 12.3 mph ENE19.8 kmh ENE 26.2 mph42.2 kmh 30.17 in1021.7 mb 0.01 in0.3 mm 0.00 in/hr0.0 mm/hr 0.02 in0.5 mm
08:42 AM 60.0°F15.6°C 56.1°F13.4°C 87% 15.7 mph ENE25.3 kmh ENE 55.9 mph90.0 kmh 30.17 in1021.7 mb 0.01 in0.3 mm 0.04 in/hr1.0 mm/hr 0.02 in0.5 mm
08:27 AM 60.3°F15.7°C 56.1°F13.4°C 86% 14.1 mph NE22.7 kmh NE 38.5 mph62.0 kmh 30.17 in1021.7 mb 0.00 in0.0 mm 0.00 in/hr0.0 mm/hr 0.01 in0.3 mm
08:12 AM 60.2°F15.7°C 56.2°F13.4°C 87% 10.5 mph E16.9 kmh E 33.3 mph53.6 kmh 30.16 in1021.3 mb 0.00 in0.0 mm 0.00 in/hr0.0 mm/hr 0.01 in0.3 mm
07:57 AM 60.3°F15.7°C 56.1°F13.4°C 86% 12.3 mph ENE19.8 kmh ENE 40.3 mph64.9 kmh 30.16 in1021.3 mb 0.00 in0.0 mm 0.00 in/hr0.0 mm/hr 0.01 in0.3 mm
07:42 AM 60.3°F15.7°C 56.1°F13.4°C 86% 10.5 mph E16.9 kmh E 40.3 mph64.9 kmh 30.15 in1021.0 mb 0.00 in0.0 mm 0.00 in/hr0.0 mm/hr 0.01 in0.3 mm
07:27 AM 60.3°F15.7°C 56.4°F13.6°C 87% 14.1 mph E22.7 kmh E 31.5 mph50.7 kmh 30.15 in1021.0 mb 0.00 in0.0 mm 0.00 in/hr0.0 mm/hr 0.01 in0.3 mm
07:12 AM 60.3°F15.7°C 56.4°F13.6°C 87% 21.0 mph E33.8 kmh E 35.1 mph56.5 kmh 30.14 in1020.7 mb 0.01 in0.3 mm 0.00 in/hr0.0 mm/hr 0.01 in0.3 mm
06:57 AM 60.3°F15.7°C 56.4°F13.6°C 87% 15.7 mph E25.3 kmh E 36.7 mph59.1 kmh 30.14 in1020.7 mb 0.01 in0.3 mm 0.00 in/hr0.0 mm/hr 0.01 in0.3 mm
06:42 AM 60.3°F15.7°C 56.4°F13.6°C 87% 10.5 mph E16.9 kmh E 31.5 mph50.7 kmh 30.15 in1021.0 mb 0.01 in0.3 mm 0.00 in/hr0.0 mm/hr 0.01 in0.3 mm
06:27 AM 60.3°F15.7°C 56.4°F13.6°C 87% 15.7 mph E25.3 kmh E 35.1 mph56.5 kmh 30.14 in1020.7 mb 0.01 in0.3 mm 0.04 in/hr1.0 mm/hr 0.01 in0.3 mm
06:12 AM 60.9°F16.1°C 56.6°F13.7°C 86% 15.7 mph NE25.3 kmh NE 38.5 mph62.0 kmh 30.15 in1021.0 mb 0.00 in0.0 mm 0.00 in/hr0.0 mm/hr 0.00 in0.0 mm
05:57 AM 61.4°F16.3°C 56.5°F13.6°C 84% 10.5 mph E16.9 kmh E 31.5 mph50.7 kmh 30.16 in1021.3 mb 0.00 in0.0 mm 0.00 in/hr0.0 mm/hr 0.00 in0.0 mm
05:42 AM 61.6°F16.4°C 56.7°F13.7°C 84% 10.5 mph E16.9 kmh E 42.1 mph67.8 kmh 30.16 in1021.3 mb 0.00 in0.0 mm 0.00 in/hr0.0 mm/hr 0.00 in0.0 mm
05:27 AM 61.6°F16.4°C 57.0°F13.9°C 85% 10.5 mph E16.9 kmh E 31.5 mph50.7 kmh 30.15 in1021.0 mb 0.00 in0.0 mm 0.00 in/hr0.0 mm/hr 0.00 in0.0 mm
05:12 AM 61.8°F16.6°C 57.2°F14.0°C 85% 8.7 mph ENE14.0 kmh ENE 35.1 mph56.5 kmh 30.15 in1021.0 mb 0.00 in0.0 mm 0.00 in/hr0.0 mm/hr 0.00 in0.0 mm
04:57 AM 61.6°F16.4°C 56.7°F13.7°C 84% 6.9 mph ENE11.1 kmh ENE 36.7 mph59.1 kmh 30.14 in1020.7 mb 0.00 in0.0 mm 0.00 in/hr0.0 mm/hr 0.00 in0.0 mm
04:42 AM 61.6°F16.4°C 56.7°F13.7°C 84% 10.5 mph ENE16.9 kmh ENE 36.7 mph59.1 kmh 30.16 in1021.3 mb 0.00 in0.0 mm 0.00 in/hr0.0 mm/hr 0.00 in0.0 mm
04:27 AM 61.6°F16.4°C 56.7°F13.7°C 84% 8.7 mph ENE14.0 kmh ENE 31.5 mph50.7 kmh 30.17 in1021.7 mb 0.00 in0.0 mm 0.00 in/hr0.0 mm/hr 0.00 in0.0 mm
04:12 AM 61.6°F16.4°C 56.3°F13.5°C 83% 12.3 mph E19.8 kmh E 38.5 mph62.0 kmh 30.17 in1021.7 mb 0.00 in0.0 mm 0.00 in/hr0.0 mm/hr 0.00 in0.0 mm
03:57 AM 61.8°F16.6°C 56.8°F13.8°C 84% 10.5 mph ENE16.9 kmh ENE 31.5 mph50.7 kmh 30.17 in1021.7 mb 0.00 in0.0 mm 0.00 in/hr0.0 mm/hr 0.00 in0.0 mm
03:42 AM 61.8°F16.6°C 56.2°F13.4°C 82% 10.5 mph E16.9 kmh E 33.3 mph53.6 kmh 30.18 in1022.0 mb 0.00 in0.0 mm 0.00 in/hr0.0 mm/hr 0.00 in0.0 mm
03:27 AM 61.8°F16.6°C 56.5°F13.6°C 83% 6.9 mph E11.1 kmh E 36.7 mph59.1 kmh 30.18 in1022.0 mb 0.00 in0.0 mm 0.00 in/hr0.0 mm/hr 0.00 in0.0 mm
03:12 AM 61.8°F16.6°C 55.8°F13.2°C 81% 10.5 mph E16.9 kmh E 36.7 mph59.1 kmh 30.18 in1022.0 mb 0.00 in0.0 mm 0.00 in/hr0.0 mm/hr 0.00 in0.0 mm
02:57 AM 61.8°F16.6°C 55.8°F13.2°C 81% 10.5 mph ENE16.9 kmh ENE 36.7 mph59.1 kmh 30.19 in1022.4 mb 0.00 in0.0 mm 0.00 in/hr0.0 mm/hr 0.00 in0.0 mm
02:42 AM 61.6°F16.4°C 55.3°F12.9°C 80% 5.1 mph ESE8.2 kmh ESE 40.3 mph64.9 kmh 30.19 in1022.4 mb 0.00 in0.0 mm 0.00 in/hr0.0 mm/hr 0.00 in0.0 mm
02:27 AM 61.6°F16.4°C 55.6°F13.1°C 81% 10.5 mph E16.9 kmh E 26.2 mph42.2 kmh 30.20 in1022.7 mb 0.00 in0.0 mm 0.00 in/hr0.0 mm/hr 0.00 in0.0 mm
02:12 AM 61.6°F16.4°C 55.6°F13.1°C 81% 6.9 mph E11.1 kmh E 33.3 mph53.6 kmh 30.21 in1023.0 mb 0.00 in0.0 mm 0.00 in/hr0.0 mm/hr 0.00 in0.0 mm
01:57 AM 61.8°F16.6°C 55.8°F13.2°C 81% 12.3 mph E19.8 kmh E 29.8 mph48.0 kmh 30.21 in1023.0 mb 0.00 in0.0 mm 0.00 in/hr0.0 mm/hr 0.00 in0.0 mm
01:42 AM 61.8°F16.6°C 55.5°F13.1°C 80% 10.5 mph ENE16.9 kmh ENE 31.5 mph50.7 kmh 30.22 in1023.4 mb 0.00 in0.0 mm 0.00 in/hr0.0 mm/hr 0.00 in0.0 mm
01:27 AM 61.8°F16.6°C 55.8°F13.2°C 81% 12.3 mph E19.8 kmh E 33.3 mph53.6 kmh 30.22 in1023.4 mb 0.00 in0.0 mm 0.00 in/hr0.0 mm/hr 0.00 in0.0 mm
01:12 AM 61.8°F16.6°C 55.5°F13.1°C 80% 10.5 mph E16.9 kmh E 29.8 mph48.0 kmh 30.22 in1023.4 mb 0.00 in0.0 mm 0.00 in/hr0.0 mm/hr 0.00 in0.0 mm
12:57 AM 62.0°F16.7°C 55.6°F13.1°C 80% 10.5 mph E16.9 kmh E 35.1 mph56.5 kmh 30.23 in1023.7 mb 0.00 in0.0 mm 0.00 in/hr0.0 mm/hr 0.00 in0.0 mm
12:42 AM 61.8°F16.6°C 55.1°F12.8°C 79% 17.4 mph E28.0 kmh E 35.1 mph56.5 kmh 30.23 in1023.7 mb 0.00 in0.0 mm 0.00 in/hr0.0 mm/hr 0.00 in0.0 mm
12:27 AM 62.0°F16.7°C 55.3°F12.9°C 79% 10.5 mph E16.9 kmh E 36.7 mph59.1 kmh 30.24 in1024.0 mb 0.00 in0.0 mm 0.00 in/hr0.0 mm/hr 0.00 in0.0 mm
12:12 AM 62.0°F16.7°C 54.2°F12.3°C 76% 6.9 mph ENE11.1 kmh ENE 35.1 mph56.5 kmh 30.24 in1024.0 mb 0.00 in0.0 mm 0.00 in/hr0.0 mm/hr 0.00 in0.0 mm